sensor_id;sensor_type;location;lat;lon;timestamp;P1;durP1;ratioP1;P2;durP2;ratioP2
3297;SDS011;1661;53.572;10.174;2023-02-13T00:01:16;25.73;;;18.13;;
3297;SDS011;1661;53.572;10.174;2023-02-13T00:03:43;25.63;;;17.40;;
3297;SDS011;1661;53.572;10.174;2023-02-13T00:06:10;25.93;;;19.33;;
3297;SDS011;1661;53.572;10.174;2023-02-13T00:08:37;27.97;;;17.80;;
3297;SDS011;1661;53.572;10.174;2023-02-13T00:11:04;29.53;;;18.00;;
3297;SDS011;1661;53.572;10.174;2023-02-13T00:13:31;23.30;;;17.30;;
3297;SDS011;1661;53.572;10.174;2023-02-13T00:15:59;24.60;;;17.07;;
3297;SDS011;1661;53.572;10.174;2023-02-13T00:18:32;32.60;;;20.23;;
3297;SDS011;1661;53.572;10.174;2023-02-13T00:21:01;26.87;;;17.93;;
3297;SDS011;1661;53.572;10.174;2023-02-13T00:23:30;26.37;;;20.00;;
3297;SDS011;1661;53.572;10.174;2023-02-13T00:25:58;29.30;;;18.70;;
3297;SDS011;1661;53.572;10.174;2023-02-13T00:28:25;26.67;;;19.03;;
3297;SDS011;1661;53.572;10.174;2023-02-13T00:30:52;23.80;;;17.87;;
3297;SDS011;1661;53.572;10.174;2023-02-13T00:33:19;28.70;;;18.80;;
3297;SDS011;1661;53.572;10.174;2023-02-13T00:35:47;27.77;;;19.43;;
3297;SDS011;1661;53.572;10.174;2023-02-13T00:38:14;23.67;;;17.67;;
3297;SDS011;1661;53.572;10.174;2023-02-13T00:40:41;27.20;;;18.20;;
3297;SDS011;1661;53.572;10.174;2023-02-13T00:43:07;28.90;;;19.00;;
3297;SDS011;1661;53.572;10.174;2023-02-13T00:45:34;31.60;;;19.97;;
3297;SDS011;1661;53.572;10.174;2023-02-13T00:48:01;31.67;;;19.43;;
3297;SDS011;1661;53.572;10.174;2023-02-13T00:50:28;28.93;;;19.63;;
3297;SDS011;1661;53.572;10.174;2023-02-13T00:52:56;30.97;;;20.67;;
3297;SDS011;1661;53.572;10.174;2023-02-13T00:55:23;39.53;;;20.70;;
3297;SDS011;1661;53.572;10.174;2023-02-13T00:57:50;33.30;;;20.23;;
3297;SDS011;1661;53.572;10.174;2023-02-13T01:00:17;32.20;;;19.13;;
3297;SDS011;1661;53.572;10.174;2023-02-13T01:02:44;29.70;;;17.97;;
3297;SDS011;1661;53.572;10.174;2023-02-13T01:05:12;30.93;;;19.27;;
3297;SDS011;1661;53.572;10.174;2023-02-13T01:07:39;32.60;;;19.97;;
3297;SDS011;1661;53.572;10.174;2023-02-13T01:10:08;32.87;;;20.47;;
3297;SDS011;1661;53.572;10.174;2023-02-13T01:12:35;32.87;;;20.97;;
3297;SDS011;1661;53.572;10.174;2023-02-13T01:15:02;33.33;;;20.23;;
3297;SDS011;1661;53.572;10.174;2023-02-13T01:17:29;33.90;;;20.60;;
3297;SDS011;1661;53.572;10.174;2023-02-13T01:19:56;41.33;;;21.97;;
3297;SDS011;1661;53.572;10.174;2023-02-13T01:22:22;34.10;;;21.73;;
3297;SDS011;1661;53.572;10.174;2023-02-13T01:24:49;31.13;;;20.10;;
3297;SDS011;1661;53.572;10.174;2023-02-13T01:27:17;33.33;;;20.27;;
3297;SDS011;1661;53.572;10.174;2023-02-13T01:29:44;38.90;;;20.67;;
3297;SDS011;1661;53.572;10.174;2023-02-13T01:32:11;33.13;;;19.20;;
3297;SDS011;1661;53.572;10.174;2023-02-13T01:34:38;30.20;;;19.70;;
3297;SDS011;1661;53.572;10.174;2023-02-13T01:37:04;35.40;;;21.50;;
3297;SDS011;1661;53.572;10.174;2023-02-13T01:39:32;30.00;;;19.33;;
3297;SDS011;1661;53.572;10.174;2023-02-13T01:41:59;35.30;;;21.67;;
3297;SDS011;1661;53.572;10.174;2023-02-13T01:44:46;39.17;;;22.97;;
3297;SDS011;1661;53.572;10.174;2023-02-13T01:47:16;30.40;;;19.90;;
3297;SDS011;1661;53.572;10.174;2023-02-13T01:49:48;28.77;;;18.80;;
3297;SDS011;1661;53.572;10.174;2023-02-13T01:52:20;33.13;;;21.60;;
3297;SDS011;1661;53.572;10.174;2023-02-13T01:54:47;31.17;;;20.47;;
3297;SDS011;1661;53.572;10.174;2023-02-13T01:57:15;31.37;;;19.37;;
3297;SDS011;1661;53.572;10.174;2023-02-13T01:59:47;30.73;;;20.80;;
3297;SDS011;1661;53.572;10.174;2023-02-13T02:02:17;30.83;;;19.63;;
3297;SDS011;1661;53.572;10.174;2023-02-13T02:04:45;31.93;;;21.10;;
3297;SDS011;1661;53.572;10.174;2023-02-13T02:07:15;36.03;;;20.20;;
3297;SDS011;1661;53.572;10.174;2023-02-13T02:09:44;32.40;;;19.03;;
3297;SDS011;1661;53.572;10.174;2023-02-13T02:12:13;32.10;;;20.03;;
3297;SDS011;1661;53.572;10.174;2023-02-13T02:14:48;39.10;;;21.00;;
3297;SDS011;1661;53.572;10.174;2023-02-13T02:17:17;27.80;;;17.97;;
3297;SDS011;1661;53.572;10.174;2023-02-13T02:19:47;33.40;;;17.40;;
3297;SDS011;1661;53.572;10.174;2023-02-13T02:25:38;31.07;;;20.10;;
3297;SDS011;1661;53.572;10.174;2023-02-13T02:28:30;28.57;;;17.27;;
3297;SDS011;1661;53.572;10.174;2023-02-13T02:34:15;29.47;;;19.00;;
3297;SDS011;1661;53.572;10.174;2023-02-13T02:36:57;29.90;;;18.50;;
3297;SDS011;1661;53.572;10.174;2023-02-13T02:39:36;29.17;;;19.70;;
3297;SDS011;1661;53.572;10.174;2023-02-13T02:42:14;29.60;;;18.17;;
3297;SDS011;1661;53.572;10.174;2023-02-13T02:44:50;32.07;;;18.23;;
3297;SDS011;1661;53.572;10.174;2023-02-13T02:47:26;29.60;;;18.90;;
3297;SDS011;1661;53.572;10.174;2023-02-13T02:50:17;34.53;;;18.70;;
3297;SDS011;1661;53.572;10.174;2023-02-13T02:52:56;30.47;;;18.57;;
3297;SDS011;1661;53.572;10.174;2023-02-13T02:55:34;28.00;;;16.97;;
3297;SDS011;1661;53.572;10.174;2023-02-13T02:58:05;28.23;;;19.07;;
3297;SDS011;1661;53.572;10.174;2023-02-13T03:00:54;31.70;;;19.90;;
3297;SDS011;1661;53.572;10.174;2023-02-13T03:03:41;30.63;;;19.80;;
3297;SDS011;1661;53.572;10.174;2023-02-13T03:06:28;29.17;;;17.63;;
3297;SDS011;1661;53.572;10.174;2023-02-13T03:09:01;26.73;;;18.90;;
3297;SDS011;1661;53.572;10.174;2023-02-13T03:11:50;29.50;;;18.70;;
3297;SDS011;1661;53.572;10.174;2023-02-13T03:14:37;25.33;;;17.13;;
3297;SDS011;1661;53.572;10.174;2023-02-13T03:17:03;29.23;;;16.90;;
3297;SDS011;1661;53.572;10.174;2023-02-13T03:19:56;31.57;;;20.40;;
3297;SDS011;1661;53.572;10.174;2023-02-13T03:22:50;28.93;;;17.73;;
3297;SDS011;1661;53.572;10.174;2023-02-13T03:25:27;28.47;;;18.43;;
3297;SDS011;1661;53.572;10.174;2023-02-13T03:28:00;30.23;;;18.20;;
3297;SDS011;1661;53.572;10.174;2023-02-13T03:30:55;27.10;;;17.30;;
3297;SDS011;1661;53.572;10.174;2023-02-13T03:33:32;27.00;;;18.63;;
3297;SDS011;1661;53.572;10.174;2023-02-13T03:36:16;23.03;;;16.70;;
3297;SDS011;1661;53.572;10.174;2023-02-13T03:39:08;25.87;;;15.43;;
3297;SDS011;1661;53.572;10.174;2023-02-13T03:41:43;23.90;;;16.13;;
3297;SDS011;1661;53.572;10.174;2023-02-13T03:44:15;26.10;;;16.30;;
3297;SDS011;1661;53.572;10.174;2023-02-13T03:46:48;24.83;;;16.50;;
3297;SDS011;1661;53.572;10.174;2023-02-13T03:49:19;29.63;;;18.33;;
3297;SDS011;1661;53.572;10.174;2023-02-13T03:52:08;20.60;;;13.90;;
3297;SDS011;1661;53.572;10.174;2023-02-13T03:54:40;21.07;;;14.30;;
3297;SDS011;1661;53.572;10.174;2023-02-13T03:57:27;28.90;;;16.83;;
3297;SDS011;1661;53.572;10.174;2023-02-13T04:00:15;21.00;;;15.03;;
3297;SDS011;1661;53.572;10.174;2023-02-13T04:02:47;26.07;;;16.50;;
3297;SDS011;1661;53.572;10.174;2023-02-13T04:05:19;23.17;;;15.80;;
3297;SDS011;1661;53.572;10.174;2023-02-13T04:07:51;19.40;;;15.27;;
3297;SDS011;1661;53.572;10.174;2023-02-13T04:10:17;23.50;;;14.47;;
3297;SDS011;1661;53.572;10.174;2023-02-13T04:12:51;21.50;;;13.87;;
3297;SDS011;1661;53.572;10.174;2023-02-13T04:15:25;22.23;;;14.07;;
3297;SDS011;1661;53.572;10.174;2023-02-13T04:17:57;22.20;;;15.37;;
3297;SDS011;1661;53.572;10.174;2023-02-13T04:20:29;24.23;;;16.47;;
3297;SDS011;1661;53.572;10.174;2023-02-13T04:23:02;23.10;;;15.70;;
3297;SDS011;1661;53.572;10.174;2023-02-13T04:25:30;20.40;;;14.43;;
3297;SDS011;1661;53.572;10.174;2023-02-13T04:27:57;28.57;;;15.80;;
3297;SDS011;1661;53.572;10.174;2023-02-13T04:30:24;18.37;;;12.80;;
3297;SDS011;1661;53.572;10.174;2023-02-13T04:32:51;23.77;;;15.53;;
3297;SDS011;1661;53.572;10.174;2023-02-13T04:35:18;51.57;;;13.17;;
3297;SDS011;1661;53.572;10.174;2023-02-13T04:37:44;16.13;;;12.20;;
3297;SDS011;1661;53.572;10.174;2023-02-13T04:40:13;26.83;;;13.80;;
3297;SDS011;1661;53.572;10.174;2023-02-13T04:42:40;15.10;;;11.20;;
3297;SDS011;1661;53.572;10.174;2023-02-13T04:45:07;15.13;;;10.67;;
3297;SDS011;1661;53.572;10.174;2023-02-13T04:47:37;19.23;;;12.90;;
3297;SDS011;1661;53.572;10.174;2023-02-13T04:50:05;16.60;;;11.73;;
3297;SDS011;1661;53.572;10.174;2023-02-13T04:52:32;21.17;;;13.40;;
3297;SDS011;1661;53.572;10.174;2023-02-13T04:54:59;25.83;;;13.50;;
3297;SDS011;1661;53.572;10.174;2023-02-13T04:57:28;18.57;;;13.10;;
3297;SDS011;1661;53.572;10.174;2023-02-13T04:59:55;14.73;;;12.17;;
3297;SDS011;1661;53.572;10.174;2023-02-13T05:02:21;20.00;;;14.87;;
3297;SDS011;1661;53.572;10.174;2023-02-13T05:04:48;22.73;;;13.93;;
3297;SDS011;1661;53.572;10.174;2023-02-13T05:07:15;18.83;;;13.13;;
3297;SDS011;1661;53.572;10.174;2023-02-13T05:09:42;22.70;;;14.50;;
3297;SDS011;1661;53.572;10.174;2023-02-13T05:12:09;27.80;;;14.07;;
3297;SDS011;1661;53.572;10.174;2023-02-13T05:14:37;19.87;;;13.90;;
3297;SDS011;1661;53.572;10.174;2023-02-13T05:17:04;20.73;;;14.23;;
3297;SDS011;1661;53.572;10.174;2023-02-13T05:19:31;22.80;;;13.67;;
3297;SDS011;1661;53.572;10.174;2023-02-13T05:21:58;12.90;;;10.77;;
3297;SDS011;1661;53.572;10.174;2023-02-13T05:24:42;18.27;;;13.20;;
3297;SDS011;1661;53.572;10.174;2023-02-13T05:27:08;20.37;;;13.60;;
3297;SDS011;1661;53.572;10.174;2023-02-13T05:29:37;24.90;;;13.90;;
3297;SDS011;1661;53.572;10.174;2023-02-13T05:32:02;19.70;;;14.07;;
3297;SDS011;1661;53.572;10.174;2023-02-13T05:34:29;19.00;;;12.20;;
3297;SDS011;1661;53.572;10.174;2023-02-13T05:36:56;16.30;;;12.70;;
3297;SDS011;1661;53.572;10.174;2023-02-13T05:39:23;17.10;;;10.17;;
3297;SDS011;1661;53.572;10.174;2023-02-13T05:41:50;18.57;;;12.47;;
3297;SDS011;1661;53.572;10.174;2023-02-13T05:44:16;15.43;;;11.07;;
3297;SDS011;1661;53.572;10.174;2023-02-13T05:46:45;19.60;;;14.17;;
3297;SDS011;1661;53.572;10.174;2023-02-13T05:49:12;21.00;;;11.83;;
3297;SDS011;1661;53.572;10.174;2023-02-13T05:51:39;18.93;;;12.27;;
3297;SDS011;1661;53.572;10.174;2023-02-13T05:54:07;19.90;;;13.00;;
3297;SDS011;1661;53.572;10.174;2023-02-13T05:56:34;17.57;;;11.20;;
3297;SDS011;1661;53.572;10.174;2023-02-13T05:59:01;14.83;;;10.53;;
3297;SDS011;1661;53.572;10.174;2023-02-13T06:01:27;18.53;;;12.20;;
3297;SDS011;1661;53.572;10.174;2023-02-13T06:03:55;17.37;;;12.53;;
3297;SDS011;1661;53.572;10.174;2023-02-13T06:06:22;15.57;;;10.90;;
3297;SDS011;1661;53.572;10.174;2023-02-13T06:08:49;11.57;;;9.83;;
3297;SDS011;1661;53.572;10.174;2023-02-13T06:11:16;13.40;;;9.77;;
3297;SDS011;1661;53.572;10.174;2023-02-13T06:13:43;18.30;;;12.40;;
3297;SDS011;1661;53.572;10.174;2023-02-13T06:16:10;19.73;;;13.33;;
3297;SDS011;1661;53.572;10.174;2023-02-13T06:18:37;16.80;;;11.47;;
3297;SDS011;1661;53.572;10.174;2023-02-13T06:21:06;18.80;;;12.97;;
3297;SDS011;1661;53.572;10.174;2023-02-13T06:23:33;11.93;;;10.40;;
3297;SDS011;1661;53.572;10.174;2023-02-13T06:26:01;16.70;;;11.87;;
3297;SDS011;1661;53.572;10.174;2023-02-13T06:28:28;15.10;;;11.70;;
3297;SDS011;1661;53.572;10.174;2023-02-13T06:30:55;18.00;;;13.97;;
3297;SDS011;1661;53.572;10.174;2023-02-13T06:33:22;16.73;;;11.53;;
3297;SDS011;1661;53.572;10.174;2023-02-13T06:35:50;17.80;;;11.87;;
3297;SDS011;1661;53.572;10.174;2023-02-13T06:38:18;12.60;;;9.37;;
3297;SDS011;1661;53.572;10.174;2023-02-13T06:40:45;13.30;;;9.37;;
3297;SDS011;1661;53.572;10.174;2023-02-13T06:43:13;12.97;;;9.07;;
3297;SDS011;1661;53.572;10.174;2023-02-13T06:45:40;21.63;;;14.50;;
3297;SDS011;1661;53.572;10.174;2023-02-13T06:48:07;22.03;;;13.83;;
3297;SDS011;1661;53.572;10.174;2023-02-13T06:50:34;24.73;;;16.20;;
3297;SDS011;1661;53.572;10.174;2023-02-13T06:53:01;22.30;;;14.70;;
3297;SDS011;1661;53.572;10.174;2023-02-13T06:55:30;27.10;;;16.60;;
3297;SDS011;1661;53.572;10.174;2023-02-13T06:57:57;68.90;;;40.33;;
3297;SDS011;1661;53.572;10.174;2023-02-13T07:00:23;63.20;;;35.87;;
3297;SDS011;1661;53.572;10.174;2023-02-13T07:02:51;32.53;;;21.13;;
3297;SDS011;1661;53.572;10.174;2023-02-13T07:05:17;33.73;;;19.80;;
3297;SDS011;1661;53.572;10.174;2023-02-13T07:07:44;38.20;;;23.40;;
3297;SDS011;1661;53.572;10.174;2023-02-13T07:10:11;23.07;;;17.73;;
3297;SDS011;1661;53.572;10.174;2023-02-13T07:12:40;28.03;;;19.60;;
3297;SDS011;1661;53.572;10.174;2023-02-13T07:15:07;20.50;;;15.80;;
3297;SDS011;1661;53.572;10.174;2023-02-13T07:17:35;22.70;;;16.47;;
3297;SDS011;1661;53.572;10.174;2023-02-13T07:20:05;17.60;;;13.10;;
3297;SDS011;1661;53.572;10.174;2023-02-13T07:22:33;20.40;;;12.97;;
3297;SDS011;1661;53.572;10.174;2023-02-13T07:25:00;20.37;;;13.90;;
3297;SDS011;1661;53.572;10.174;2023-02-13T07:27:27;20.87;;;15.77;;
3297;SDS011;1661;53.572;10.174;2023-02-13T07:29:55;20.40;;;14.37;;
3297;SDS011;1661;53.572;10.174;2023-02-13T07:32:22;21.53;;;12.60;;
3297;SDS011;1661;53.572;10.174;2023-02-13T07:34:49;26.10;;;16.40;;
3297;SDS011;1661;53.572;10.174;2023-02-13T07:37:16;25.40;;;16.70;;
3297;SDS011;1661;53.572;10.174;2023-02-13T07:39:43;30.87;;;17.77;;
3297;SDS011;1661;53.572;10.174;2023-02-13T07:42:09;26.77;;;19.63;;
3297;SDS011;1661;53.572;10.174;2023-02-13T07:44:36;25.10;;;18.17;;
3297;SDS011;1661;53.572;10.174;2023-02-13T07:47:04;22.00;;;15.63;;
3297;SDS011;1661;53.572;10.174;2023-02-13T07:49:31;22.90;;;16.30;;
3297;SDS011;1661;53.572;10.174;2023-02-13T07:51:58;23.87;;;17.03;;
3297;SDS011;1661;53.572;10.174;2023-02-13T07:54:25;22.70;;;16.20;;
3297;SDS011;1661;53.572;10.174;2023-02-13T07:56:52;25.07;;;16.20;;
3297;SDS011;1661;53.572;10.174;2023-02-13T07:59:19;17.83;;;13.97;;
3297;SDS011;1661;53.572;10.174;2023-02-13T08:01:46;22.90;;;14.53;;
3297;SDS011;1661;53.572;10.174;2023-02-13T08:04:14;24.57;;;16.77;;
3297;SDS011;1661;53.572;10.174;2023-02-13T08:06:40;20.70;;;14.37;;
3297;SDS011;1661;53.572;10.174;2023-02-13T08:09:10;26.80;;;16.43;;
3297;SDS011;1661;53.572;10.174;2023-02-13T08:12:00;27.80;;;19.63;;
3297;SDS011;1661;53.572;10.174;2023-02-13T08:14:27;25.30;;;17.20;;
3297;SDS011;1661;53.572;10.174;2023-02-13T08:16:54;28.90;;;19.20;;
3297;SDS011;1661;53.572;10.174;2023-02-13T08:19:22;24.00;;;18.33;;
3297;SDS011;1661;53.572;10.174;2023-02-13T08:21:49;23.07;;;15.97;;
3297;SDS011;1661;53.572;10.174;2023-02-13T08:24:16;21.80;;;15.23;;
3297;SDS011;1661;53.572;10.174;2023-02-13T08:26:42;28.60;;;17.37;;
3297;SDS011;1661;53.572;10.174;2023-02-13T08:29:09;22.77;;;15.83;;
3297;SDS011;1661;53.572;10.174;2023-02-13T08:31:36;24.80;;;16.93;;
3297;SDS011;1661;53.572;10.174;2023-02-13T08:34:03;18.33;;;14.90;;
3297;SDS011;1661;53.572;10.174;2023-02-13T08:36:31;27.43;;;15.70;;
3297;SDS011;1661;53.572;10.174;2023-02-13T08:38:58;25.77;;;16.70;;
3297;SDS011;1661;53.572;10.174;2023-02-13T08:41:25;24.73;;;16.17;;
3297;SDS011;1661;53.572;10.174;2023-02-13T08:43:52;21.20;;;14.93;;
3297;SDS011;1661;53.572;10.174;2023-02-13T08:46:20;25.43;;;15.60;;
3297;SDS011;1661;53.572;10.174;2023-02-13T08:48:47;25.50;;;15.07;;
3297;SDS011;1661;53.572;10.174;2023-02-13T08:51:13;17.50;;;13.30;;
3297;SDS011;1661;53.572;10.174;2023-02-13T08:53:42;24.33;;;17.60;;
3297;SDS011;1661;53.572;10.174;2023-02-13T08:56:09;26.50;;;18.27;;
3297;SDS011;1661;53.572;10.174;2023-02-13T08:58:36;25.50;;;16.17;;
3297;SDS011;1661;53.572;10.174;2023-02-13T09:01:04;24.60;;;16.10;;
3297;SDS011;1661;53.572;10.174;2023-02-13T09:03:31;31.17;;;18.63;;
3297;SDS011;1661;53.572;10.174;2023-02-13T09:05:58;28.60;;;16.90;;
3297;SDS011;1661;53.572;10.174;2023-02-13T09:08:25;25.60;;;18.47;;
3297;SDS011;1661;53.572;10.174;2023-02-13T09:10:57;26.67;;;17.00;;
3297;SDS011;1661;53.572;10.174;2023-02-13T09:13:25;23.40;;;16.60;;
3297;SDS011;1661;53.572;10.174;2023-02-13T09:15:52;25.53;;;16.17;;
3297;SDS011;1661;53.572;10.174;2023-02-13T09:18:19;25.37;;;16.30;;
3297;SDS011;1661;53.572;10.174;2023-02-13T09:20:46;20.37;;;15.07;;
3297;SDS011;1661;53.572;10.174;2023-02-13T09:23:13;26.80;;;16.90;;
3297;SDS011;1661;53.572;10.174;2023-02-13T09:25:39;32.83;;;21.30;;
3297;SDS011;1661;53.572;10.174;2023-02-13T09:28:08;32.17;;;18.30;;
3297;SDS011;1661;53.572;10.174;2023-02-13T09:30:34;29.00;;;15.63;;
3297;SDS011;1661;53.572;10.174;2023-02-13T09:33:01;28.87;;;17.67;;
3297;SDS011;1661;53.572;10.174;2023-02-13T09:35:28;26.30;;;17.90;;
3297;SDS011;1661;53.572;10.174;2023-02-13T09:37:55;24.23;;;15.00;;
3297;SDS011;1661;53.572;10.174;2023-02-13T09:40:23;26.33;;;17.77;;
3297;SDS011;1661;53.572;10.174;2023-02-13T09:42:53;22.97;;;15.50;;
3297;SDS011;1661;53.572;10.174;2023-02-13T09:45:33;26.33;;;17.97;;
3297;SDS011;1661;53.572;10.174;2023-02-13T09:48:00;27.90;;;17.77;;
3297;SDS011;1661;53.572;10.174;2023-02-13T09:50:28;26.27;;;16.33;;
3297;SDS011;1661;53.572;10.174;2023-02-13T09:52:57;28.93;;;16.77;;
3297;SDS011;1661;53.572;10.174;2023-02-13T09:55:26;21.43;;;15.40;;
3297;SDS011;1661;53.572;10.174;2023-02-13T09:58:03;30.83;;;16.73;;
3297;SDS011;1661;53.572;10.174;2023-02-13T10:00:36;27.67;;;17.47;;
3297;SDS011;1661;53.572;10.174;2023-02-13T10:05:56;20.17;;;15.70;;
3297;SDS011;1661;53.572;10.174;2023-02-13T10:11:38;24.40;;;15.67;;
3297;SDS011;1661;53.572;10.174;2023-02-13T10:14:16;28.50;;;17.63;;
3297;SDS011;1661;53.572;10.174;2023-02-13T10:16:51;27.40;;;17.77;;
3297;SDS011;1661;53.572;10.174;2023-02-13T10:19:31;21.20;;;14.00;;
3297;SDS011;1661;53.572;10.174;2023-02-13T10:22:03;27.90;;;17.67;;
3297;SDS011;1661;53.572;10.174;2023-02-13T10:24:37;24.40;;;16.40;;
3297;SDS011;1661;53.572;10.174;2023-02-13T10:27:11;24.70;;;16.50;;
3297;SDS011;1661;53.572;10.174;2023-02-13T10:29:46;28.60;;;17.40;;
3297;SDS011;1661;53.572;10.174;2023-02-13T10:32:48;18.87;;;13.93;;
3297;SDS011;1661;53.572;10.174;2023-02-13T10:35:35;22.80;;;16.80;;
3297;SDS011;1661;53.572;10.174;2023-02-13T10:38:10;25.90;;;19.17;;
3297;SDS011;1661;53.572;10.174;2023-02-13T10:40:43;24.47;;;14.97;;
3297;SDS011;1661;53.572;10.174;2023-02-13T10:43:28;30.07;;;17.83;;
3297;SDS011;1661;53.572;10.174;2023-02-13T10:46:05;28.20;;;18.23;;
3297;SDS011;1661;53.572;10.174;2023-02-13T10:48:44;32.50;;;16.97;;
3297;SDS011;1661;53.572;10.174;2023-02-13T10:51:23;30.63;;;16.93;;
3297;SDS011;1661;53.572;10.174;2023-02-13T10:53:58;31.77;;;19.47;;
3297;SDS011;1661;53.572;10.174;2023-02-13T10:56:41;34.03;;;21.40;;
3297;SDS011;1661;53.572;10.174;2023-02-13T10:59:29;35.43;;;18.10;;
3297;SDS011;1661;53.572;10.174;2023-02-13T11:02:18;36.53;;;20.47;;
3297;SDS011;1661;53.572;10.174;2023-02-13T11:04:49;46.03;;;25.60;;
3297;SDS011;1661;53.572;10.174;2023-02-13T11:07:23;37.87;;;21.50;;
3297;SDS011;1661;53.572;10.174;2023-02-13T11:09:51;27.57;;;17.80;;
3297;SDS011;1661;53.572;10.174;2023-02-13T11:12:25;28.50;;;19.90;;
3297;SDS011;1661;53.572;10.174;2023-02-13T11:14:54;32.57;;;18.30;;
3297;SDS011;1661;53.572;10.174;2023-02-13T11:17:23;26.27;;;17.00;;
3297;SDS011;1661;53.572;10.174;2023-02-13T11:19:53;25.90;;;16.60;;
3297;SDS011;1661;53.572;10.174;2023-02-13T11:22:26;27.40;;;18.00;;
3297;SDS011;1661;53.572;10.174;2023-02-13T11:24:56;32.80;;;19.10;;
3297;SDS011;1661;53.572;10.174;2023-02-13T11:27:27;30.63;;;19.93;;
3297;SDS011;1661;53.572;10.174;2023-02-13T11:29:59;25.70;;;16.00;;
3297;SDS011;1661;53.572;10.174;2023-02-13T11:32:27;27.63;;;17.40;;
3297;SDS011;1661;53.572;10.174;2023-02-13T11:34:57;29.57;;;18.20;;
3297;SDS011;1661;53.572;10.174;2023-02-13T11:37:58;28.33;;;17.80;;
3297;SDS011;1661;53.572;10.174;2023-02-13T11:40:38;23.27;;;17.30;;
3297;SDS011;1661;53.572;10.174;2023-02-13T11:43:13;34.50;;;18.40;;
3297;SDS011;1661;53.572;10.174;2023-02-13T11:45:44;24.70;;;17.33;;
3297;SDS011;1661;53.572;10.174;2023-02-13T11:48:19;26.83;;;17.80;;
3297;SDS011;1661;53.572;10.174;2023-02-13T11:50:51;27.80;;;19.20;;
3297;SDS011;1661;53.572;10.174;2023-02-13T11:53:20;28.87;;;19.20;;
3297;SDS011;1661;53.572;10.174;2023-02-13T11:56:00;27.63;;;20.10;;
3297;SDS011;1661;53.572;10.174;2023-02-13T11:58:32;27.90;;;17.90;;
3297;SDS011;1661;53.572;10.174;2023-02-13T12:01:07;27.37;;;19.23;;
3297;SDS011;1661;53.572;10.174;2023-02-13T12:03:56;30.40;;;19.37;;
3297;SDS011;1661;53.572;10.174;2023-02-13T12:06:28;25.43;;;20.03;;
3297;SDS011;1661;53.572;10.174;2023-02-13T12:09:03;31.97;;;20.57;;
3297;SDS011;1661;53.572;10.174;2023-02-13T12:11:34;34.80;;;20.83;;
3297;SDS011;1661;53.572;10.174;2023-02-13T12:14:07;40.20;;;21.67;;
3297;SDS011;1661;53.572;10.174;2023-02-13T12:16:39;27.87;;;19.30;;
3297;SDS011;1661;53.572;10.174;2023-02-13T12:19:11;41.50;;;21.53;;
3297;SDS011;1661;53.572;10.174;2023-02-13T12:21:47;37.10;;;20.60;;
3297;SDS011;1661;53.572;10.174;2023-02-13T12:24:32;33.13;;;19.80;;
3297;SDS011;1661;53.572;10.174;2023-02-13T12:27:14;33.77;;;20.40;;
3297;SDS011;1661;53.572;10.174;2023-02-13T12:32:53;25.60;;;18.43;;
3297;SDS011;1661;53.572;10.174;2023-02-13T12:35:32;26.57;;;17.97;;
3297;SDS011;1661;53.572;10.174;2023-02-13T12:38:08;30.33;;;18.77;;
3297;SDS011;1661;53.572;10.174;2023-02-13T12:43:39;30.83;;;20.90;;
3297;SDS011;1661;53.572;10.174;2023-02-13T12:46:24;35.20;;;22.10;;
3297;SDS011;1661;53.572;10.174;2023-02-13T12:48:56;34.97;;;21.63;;
3297;SDS011;1661;53.572;10.174;2023-02-13T12:51:36;39.10;;;21.50;;
3297;SDS011;1661;53.572;10.174;2023-02-13T12:54:19;26.13;;;18.47;;
3297;SDS011;1661;53.572;10.174;2023-02-13T12:57:10;33.30;;;19.70;;
3297;SDS011;1661;53.572;10.174;2023-02-13T12:59:50;31.83;;;19.60;;
3297;SDS011;1661;53.572;10.174;2023-02-13T13:02:42;27.67;;;18.33;;
3297;SDS011;1661;53.572;10.174;2023-02-13T13:05:24;33.10;;;20.10;;
3297;SDS011;1661;53.572;10.174;2023-02-13T13:08:04;30.30;;;19.40;;
3297;SDS011;1661;53.572;10.174;2023-02-13T13:10:48;37.03;;;23.57;;
3297;SDS011;1661;53.572;10.174;2023-02-13T13:13:27;35.97;;;20.67;;
3297;SDS011;1661;53.572;10.174;2023-02-13T13:16:05;40.70;;;22.00;;
3297;SDS011;1661;53.572;10.174;2023-02-13T13:18:39;32.43;;;19.50;;
3297;SDS011;1661;53.572;10.174;2023-02-13T13:21:20;32.70;;;20.90;;
3297;SDS011;1661;53.572;10.174;2023-02-13T13:23:58;43.43;;;25.17;;
3297;SDS011;1661;53.572;10.174;2023-02-13T13:26:33;34.83;;;21.77;;
3297;SDS011;1661;53.572;10.174;2023-02-13T13:29:04;36.17;;;23.80;;
3297;SDS011;1661;53.572;10.174;2023-02-13T13:31:36;41.90;;;25.77;;
3297;SDS011;1661;53.572;10.174;2023-02-13T13:34:05;38.37;;;24.60;;
3297;SDS011;1661;53.572;10.174;2023-02-13T13:36:36;34.17;;;21.73;;
3297;SDS011;1661;53.572;10.174;2023-02-13T13:39:14;40.27;;;24.07;;
3297;SDS011;1661;53.572;10.174;2023-02-13T13:41:53;36.63;;;24.40;;
3297;SDS011;1661;53.572;10.174;2023-02-13T13:47:18;44.10;;;26.17;;
3297;SDS011;1661;53.572;10.174;2023-02-13T13:49:51;35.77;;;19.07;;
3297;SDS011;1661;53.572;10.174;2023-02-13T13:52:24;47.87;;;28.23;;
3297;SDS011;1661;53.572;10.174;2023-02-13T13:54:52;39.10;;;22.43;;
3297;SDS011;1661;53.572;10.174;2023-02-13T13:57:22;38.60;;;22.93;;
3297;SDS011;1661;53.572;10.174;2023-02-13T14:02:49;38.87;;;22.73;;
3297;SDS011;1661;53.572;10.174;2023-02-13T14:05:55;43.30;;;25.90;;
3297;SDS011;1661;53.572;10.174;2023-02-13T14:11:35;31.83;;;19.23;;
3297;SDS011;1661;53.572;10.174;2023-02-13T14:20:21;38.60;;;22.70;;
3297;SDS011;1661;53.572;10.174;2023-02-13T14:23:17;37.23;;;22.43;;
3297;SDS011;1661;53.572;10.174;2023-02-13T14:29:16;33.17;;;18.10;;
3297;SDS011;1661;53.572;10.174;2023-02-13T14:34:57;39.37;;;24.50;;
3297;SDS011;1661;53.572;10.174;2023-02-13T14:37:34;47.13;;;22.90;;
3297;SDS011;1661;53.572;10.174;2023-02-13T14:43:20;30.70;;;18.40;;
3297;SDS011;1661;53.572;10.174;2023-02-13T14:46:18;36.20;;;20.30;;
3297;SDS011;1661;53.572;10.174;2023-02-13T14:48:55;41.77;;;25.53;;
3297;SDS011;1661;53.572;10.174;2023-02-13T14:51:28;40.10;;;23.20;;
3297;SDS011;1661;53.572;10.174;2023-02-13T14:54:01;44.97;;;24.43;;
3297;SDS011;1661;53.572;10.174;2023-02-13T14:56:31;45.30;;;24.40;;
3297;SDS011;1661;53.572;10.174;2023-02-13T14:59:00;34.27;;;19.87;;
3297;SDS011;1661;53.572;10.174;2023-02-13T15:01:36;40.87;;;22.73;;
3297;SDS011;1661;53.572;10.174;2023-02-13T15:04:11;37.33;;;22.03;;
3297;SDS011;1661;53.572;10.174;2023-02-13T15:06:45;41.30;;;24.50;;
3297;SDS011;1661;53.572;10.174;2023-02-13T15:09:19;41.53;;;24.47;;
3297;SDS011;1661;53.572;10.174;2023-02-13T15:11:51;33.83;;;19.13;;
3297;SDS011;1661;53.572;10.174;2023-02-13T15:14:23;44.00;;;25.43;;
3297;SDS011;1661;53.572;10.174;2023-02-13T15:16:56;42.27;;;25.10;;
3297;SDS011;1661;53.572;10.174;2023-02-13T15:19:26;29.23;;;17.60;;
3297;SDS011;1661;53.572;10.174;2023-02-13T15:21:57;40.00;;;24.03;;
3297;SDS011;1661;53.572;10.174;2023-02-13T15:24:25;37.63;;;23.77;;
3297;SDS011;1661;53.572;10.174;2023-02-13T15:27:02;32.20;;;18.37;;
3297;SDS011;1661;53.572;10.174;2023-02-13T15:29:31;34.00;;;19.80;;
3297;SDS011;1661;53.572;10.174;2023-02-13T15:31:58;50.67;;;27.37;;
3297;SDS011;1661;53.572;10.174;2023-02-13T15:34:26;42.60;;;23.27;;
3297;SDS011;1661;53.572;10.174;2023-02-13T15:36:53;37.80;;;22.63;;
3297;SDS011;1661;53.572;10.174;2023-02-13T15:39:26;29.43;;;18.27;;
3297;SDS011;1661;53.572;10.174;2023-02-13T15:41:55;33.07;;;22.03;;
3297;SDS011;1661;53.572;10.174;2023-02-13T15:44:25;42.10;;;22.80;;
3297;SDS011;1661;53.572;10.174;2023-02-13T15:46:55;44.93;;;24.43;;